sensor_id;sensor_type;location;lat;lon;timestamp;pressure;altitude;pressure_sealevel;temperature;humidity
64053;BME280;50299;49.524;8.536;2023-05-16T00:00:44;100264.66;;;10.36;62.79
64053;BME280;50299;49.524;8.536;2023-05-16T00:03:11;100268.69;;;10.47;62.23
64053;BME280;50299;49.524;8.536;2023-05-16T00:05:38;100262.50;;;10.50;62.84
64053;BME280;50299;49.524;8.536;2023-05-16T00:08:04;100266.09;;;10.42;62.83
64053;BME280;50299;49.524;8.536;2023-05-16T00:10:31;100263.16;;;10.77;63.22
64053;BME280;50299;49.524;8.536;2023-05-16T00:12:57;100265.41;;;10.54;62.47
64053;BME280;50299;49.524;8.536;2023-05-16T00:15:27;100267.31;;;10.24;62.10
64053;BME280;50299;49.524;8.536;2023-05-16T00:17:55;100272.25;;;10.48;62.65
64053;BME280;50299;49.524;8.536;2023-05-16T00:20:25;100274.38;;;10.80;63.82
64053;BME280;50299;49.524;8.536;2023-05-16T00:22:53;100277.47;;;10.79;62.43
64053;BME280;50299;49.524;8.536;2023-05-16T00:25:20;100265.34;;;10.33;63.28
64053;BME280;50299;49.524;8.536;2023-05-16T00:27:46;100264.81;;;10.40;64.65
64053;BME280;50299;49.524;8.536;2023-05-16T00:30:13;100267.03;;;10.17;64.42
64053;BME280;50299;49.524;8.536;2023-05-16T00:32:39;100269.94;;;10.20;64.33
64053;BME280;50299;49.524;8.536;2023-05-16T00:35:06;100263.06;;;9.88;65.78
64053;BME280;50299;49.524;8.536;2023-05-16T00:37:36;100260.44;;;10.39;67.20
64053;BME280;50299;49.524;8.536;2023-05-16T00:40:03;100268.38;;;10.02;64.29
64053;BME280;50299;49.524;8.536;2023-05-16T00:42:30;100260.78;;;9.90;65.98
64053;BME280;50299;49.524;8.536;2023-05-16T00:44:56;100252.16;;;10.39;66.56
64053;BME280;50299;49.524;8.536;2023-05-16T00:47:23;100257.03;;;9.95;65.15
64053;BME280;50299;49.524;8.536;2023-05-16T00:49:49;100262.63;;;10.16;65.40
64053;BME280;50299;49.524;8.536;2023-05-16T00:52:16;100258.47;;;10.39;64.49
64053;BME280;50299;49.524;8.536;2023-05-16T00:54:42;100261.03;;;10.53;65.49
64053;BME280;50299;49.524;8.536;2023-05-16T00:57:08;100261.34;;;10.81;64.93
64053;BME280;50299;49.524;8.536;2023-05-16T00:59:35;100263.69;;;10.70;65.74
64053;BME280;50299;49.524;8.536;2023-05-16T01:02:01;100262.53;;;10.42;63.92
64053;BME280;50299;49.524;8.536;2023-05-16T01:04:28;100267.97;;;10.59;63.75
64053;BME280;50299;49.524;8.536;2023-05-16T01:06:55;100272.38;;;10.22;64.36
64053;BME280;50299;49.524;8.536;2023-05-16T01:09:22;100269.03;;;10.46;65.92
64053;BME280;50299;49.524;8.536;2023-05-16T01:12:08;100278.94;;;10.08;66.31
64053;BME280;50299;49.524;8.536;2023-05-16T01:20:34;100271.03;;;9.37;67.98
64053;BME280;50299;49.524;8.536;2023-05-16T01:23:26;100272.50;;;9.52;67.55
64053;BME280;50299;49.524;8.536;2023-05-16T01:26:15;100272.69;;;9.47;68.71
64053;BME280;50299;49.524;8.536;2023-05-16T01:28:45;100271.53;;;9.57;68.34
64053;BME280;50299;49.524;8.536;2023-05-16T01:31:14;100272.66;;;9.56;69.42
64053;BME280;50299;49.524;8.536;2023-05-16T01:33:42;100276.88;;;9.62;67.55
64053;BME280;50299;49.524;8.536;2023-05-16T01:36:25;100280.00;;;9.34;68.33
64053;BME280;50299;49.524;8.536;2023-05-16T01:39:01;100281.13;;;9.42;68.60
64053;BME280;50299;49.524;8.536;2023-05-16T01:41:39;100278.34;;;9.68;67.65
64053;BME280;50299;49.524;8.536;2023-05-16T01:44:15;100278.44;;;10.06;69.23
64053;BME280;50299;49.524;8.536;2023-05-16T01:46:43;100278.31;;;9.85;68.53
64053;BME280;50299;49.524;8.536;2023-05-16T01:52:12;100274.66;;;9.29;69.38
64053;BME280;50299;49.524;8.536;2023-05-16T01:54:43;100284.38;;;9.44;69.82
64053;BME280;50299;49.524;8.536;2023-05-16T01:57:11;100285.81;;;9.24;70.75
64053;BME280;50299;49.524;8.536;2023-05-16T01:59:39;100282.38;;;8.84;72.98
64053;BME280;50299;49.524;8.536;2023-05-16T02:02:07;100279.31;;;9.03;72.07
64053;BME280;50299;49.524;8.536;2023-05-16T02:04:34;100281.78;;;9.13;73.21
64053;BME280;50299;49.524;8.536;2023-05-16T02:07:00;100287.94;;;9.36;69.40
64053;BME280;50299;49.524;8.536;2023-05-16T02:09:27;100293.44;;;9.62;69.47
64053;BME280;50299;49.524;8.536;2023-05-16T02:11:54;100291.84;;;9.26;69.69
64053;BME280;50299;49.524;8.536;2023-05-16T02:14:20;100291.00;;;9.00;71.63
64053;BME280;50299;49.524;8.536;2023-05-16T02:16:47;100288.38;;;8.86;72.33
64053;BME280;50299;49.524;8.536;2023-05-16T02:19:13;100286.88;;;8.23;73.82
64053;BME280;50299;49.524;8.536;2023-05-16T02:21:40;100283.59;;;8.60;73.32
64053;BME280;50299;49.524;8.536;2023-05-16T02:24:06;100284.84;;;8.46;73.02
64053;BME280;50299;49.524;8.536;2023-05-16T02:26:33;100283.25;;;8.62;73.20
64053;BME280;50299;49.524;8.536;2023-05-16T02:28:59;100279.25;;;8.28;73.77
64053;BME280;50299;49.524;8.536;2023-05-16T02:31:30;100281.28;;;8.54;74.35
64053;BME280;50299;49.524;8.536;2023-05-16T02:33:58;100282.50;;;8.70;73.94
64053;BME280;50299;49.524;8.536;2023-05-16T02:36:25;100290.19;;;8.51;72.55
64053;BME280;50299;49.524;8.536;2023-05-16T02:38:52;100287.69;;;8.23;74.53
64053;BME280;50299;49.524;8.536;2023-05-16T02:41:19;100282.06;;;8.46;72.86
64053;BME280;50299;49.524;8.536;2023-05-16T02:43:47;100293.25;;;8.09;74.96
64053;BME280;50299;49.524;8.536;2023-05-16T02:46:31;100288.13;;;8.17;75.38
64053;BME280;50299;49.524;8.536;2023-05-16T02:48:58;100286.47;;;8.07;74.67
64053;BME280;50299;49.524;8.536;2023-05-16T02:51:26;100291.88;;;8.21;73.99
64053;BME280;50299;49.524;8.536;2023-05-16T02:53:53;100292.31;;;8.14;74.25
64053;BME280;50299;49.524;8.536;2023-05-16T02:56:22;100289.16;;;7.98;75.65
64053;BME280;50299;49.524;8.536;2023-05-16T02:58:49;100289.41;;;8.10;75.01
64053;BME280;50299;49.524;8.536;2023-05-16T03:01:15;100291.63;;;8.08;73.87
64053;BME280;50299;49.524;8.536;2023-05-16T03:03:42;100288.78;;;7.46;76.08
64053;BME280;50299;49.524;8.536;2023-05-16T03:06:09;100294.69;;;7.76;75.77
64053;BME280;50299;49.524;8.536;2023-05-16T03:08:35;100300.75;;;7.86;76.58
64053;BME280;50299;49.524;8.536;2023-05-16T03:11:02;100299.19;;;7.94;75.20
64053;BME280;50299;49.524;8.536;2023-05-16T03:13:28;100299.84;;;8.00;74.94
64053;BME280;50299;49.524;8.536;2023-05-16T03:15:55;100299.94;;;8.17;74.67
64053;BME280;50299;49.524;8.536;2023-05-16T03:18:21;100304.78;;;8.11;74.48
64053;BME280;50299;49.524;8.536;2023-05-16T03:20:48;100311.56;;;7.83;75.00
64053;BME280;50299;49.524;8.536;2023-05-16T03:23:14;100305.19;;;7.96;75.37
64053;BME280;50299;49.524;8.536;2023-05-16T03:25:40;100314.13;;;7.79;75.44
64053;BME280;50299;49.524;8.536;2023-05-16T03:28:08;100304.66;;;7.85;75.05
64053;BME280;50299;49.524;8.536;2023-05-16T03:30:35;100312.44;;;7.92;75.64
64053;BME280;50299;49.524;8.536;2023-05-16T03:33:01;100303.41;;;7.69;75.83
64053;BME280;50299;49.524;8.536;2023-05-16T03:35:33;100311.72;;;7.05;76.51
64053;BME280;50299;49.524;8.536;2023-05-16T03:37:59;100316.56;;;7.22;76.99
64053;BME280;50299;49.524;8.536;2023-05-16T03:40:26;100311.94;;;7.09;78.83
64053;BME280;50299;49.524;8.536;2023-05-16T03:42:52;100320.31;;;7.26;78.77
64053;BME280;50299;49.524;8.536;2023-05-16T03:45:19;100312.72;;;7.46;76.39
64053;BME280;50299;49.524;8.536;2023-05-16T03:47:47;100322.28;;;7.62;77.45
64053;BME280;50299;49.524;8.536;2023-05-16T03:50:14;100316.06;;;7.56;77.08
64053;BME280;50299;49.524;8.536;2023-05-16T03:52:41;100327.66;;;7.67;76.47
64053;BME280;50299;49.524;8.536;2023-05-16T03:55:08;100330.91;;;7.92;75.02
64053;BME280;50299;49.524;8.536;2023-05-16T03:57:36;100319.88;;;7.92;74.58
64053;BME280;50299;49.524;8.536;2023-05-16T04:00:03;100330.50;;;7.84;74.92
64053;BME280;50299;49.524;8.536;2023-05-16T04:02:35;100338.53;;;7.95;75.53
64053;BME280;50299;49.524;8.536;2023-05-16T04:05:02;100338.09;;;7.79;73.48
64053;BME280;50299;49.524;8.536;2023-05-16T04:07:28;100348.16;;;7.83;76.48
64053;BME280;50299;49.524;8.536;2023-05-16T04:09:54;100336.41;;;7.69;74.19
64053;BME280;50299;49.524;8.536;2023-05-16T04:12:23;100347.75;;;8.21;75.36
64053;BME280;50299;49.524;8.536;2023-05-16T04:14:50;100344.38;;;8.24;73.95
64053;BME280;50299;49.524;8.536;2023-05-16T04:17:16;100353.94;;;8.27;74.09
64053;BME280;50299;49.524;8.536;2023-05-16T04:19:43;100351.72;;;8.37;74.10
64053;BME280;50299;49.524;8.536;2023-05-16T04:22:09;100351.59;;;7.89;72.61
64053;BME280;50299;49.524;8.536;2023-05-16T04:24:36;100351.75;;;8.46;76.88
64053;BME280;50299;49.524;8.536;2023-05-16T04:27:02;100349.31;;;8.45;74.28
64053;BME280;50299;49.524;8.536;2023-05-16T04:29:30;100354.19;;;8.17;71.91
64053;BME280;50299;49.524;8.536;2023-05-16T04:31:57;100345.63;;;8.18;71.91
64053;BME280;50299;49.524;8.536;2023-05-16T04:34:23;100352.88;;;8.14;72.83
64053;BME280;50299;49.524;8.536;2023-05-16T04:36:53;100352.63;;;8.24;73.32
64053;BME280;50299;49.524;8.536;2023-05-16T04:39:20;100357.81;;;8.57;71.04
64053;BME280;50299;49.524;8.536;2023-05-16T04:41:47;100350.44;;;8.35;72.08
64053;BME280;50299;49.524;8.536;2023-05-16T04:44:13;100360.78;;;8.07;73.57
64053;BME280;50299;49.524;8.536;2023-05-16T04:46:39;100369.63;;;8.57;77.41
64053;BME280;50299;49.524;8.536;2023-05-16T04:49:06;100370.63;;;8.93;72.75
64053;BME280;50299;49.524;8.536;2023-05-16T04:51:33;100369.72;;;9.41;73.52
64053;BME280;50299;49.524;8.536;2023-05-16T04:54:00;100382.53;;;9.36;69.57
64053;BME280;50299;49.524;8.536;2023-05-16T04:56:26;100375.38;;;9.18;74.23
64053;BME280;50299;49.524;8.536;2023-05-16T04:58:52;100378.00;;;9.49;70.00
64053;BME280;50299;49.524;8.536;2023-05-16T05:01:19;100380.81;;;9.75;75.14
64053;BME280;50299;49.524;8.536;2023-05-16T05:03:46;100387.94;;;9.94;69.19
64053;BME280;50299;49.524;8.536;2023-05-16T05:06:13;100386.16;;;9.98;67.38
64053;BME280;50299;49.524;8.536;2023-05-16T05:08:40;100390.22;;;10.09;68.91
64053;BME280;50299;49.524;8.536;2023-05-16T05:11:06;100393.59;;;10.15;65.76
64053;BME280;50299;49.524;8.536;2023-05-16T05:13:32;100395.91;;;10.04;66.22
64053;BME280;50299;49.524;8.536;2023-05-16T05:15:59;100397.69;;;10.08;66.03
64053;BME280;50299;49.524;8.536;2023-05-16T05:18:27;100398.53;;;9.83;65.16
64053;BME280;50299;49.524;8.536;2023-05-16T05:20:53;100398.91;;;9.24;69.20
64053;BME280;50299;49.524;8.536;2023-05-16T05:23:20;100401.56;;;9.55;68.49
64053;BME280;50299;49.524;8.536;2023-05-16T05:25:46;100407.38;;;9.54;66.66
64053;BME280;50299;49.524;8.536;2023-05-16T05:28:13;100397.72;;;8.99;70.39
64053;BME280;50299;49.524;8.536;2023-05-16T05:30:39;100402.91;;;9.75;68.35
64053;BME280;50299;49.524;8.536;2023-05-16T05:33:10;100403.72;;;9.84;66.90
64053;BME280;50299;49.524;8.536;2023-05-16T05:35:37;100406.47;;;9.84;68.52
64053;BME280;50299;49.524;8.536;2023-05-16T05:38:03;100410.34;;;10.18;65.38
64053;BME280;50299;49.524;8.536;2023-05-16T05:40:29;100410.53;;;9.87;64.80
64053;BME280;50299;49.524;8.536;2023-05-16T05:42:56;100411.97;;;9.67;65.95
64053;BME280;50299;49.524;8.536;2023-05-16T05:45:22;100403.34;;;9.51;68.42
64053;BME280;50299;49.524;8.536;2023-05-16T05:47:49;100412.81;;;9.76;66.36
64053;BME280;50299;49.524;8.536;2023-05-16T05:50:16;100415.91;;;9.83;65.24
64053;BME280;50299;49.524;8.536;2023-05-16T05:52:42;100417.78;;;9.57;66.24
64053;BME280;50299;49.524;8.536;2023-05-16T05:55:09;100416.50;;;9.63;68.05
64053;BME280;50299;49.524;8.536;2023-05-16T05:57:35;100422.53;;;9.74;66.63
64053;BME280;50299;49.524;8.536;2023-05-16T06:00:02;100418.59;;;9.66;65.63
64053;BME280;50299;49.524;8.536;2023-05-16T06:02:30;100420.88;;;9.47;64.96
64053;BME280;50299;49.524;8.536;2023-05-16T06:04:57;100417.41;;;9.24;67.01
64053;BME280;50299;49.524;8.536;2023-05-16T06:07:23;100430.97;;;9.69;65.81
64053;BME280;50299;49.524;8.536;2023-05-16T06:09:50;100430.97;;;9.69;66.69
64053;BME280;50299;49.524;8.536;2023-05-16T06:12:17;100425.31;;;10.00;67.34
64053;BME280;50299;49.524;8.536;2023-05-16T06:14:43;100431.78;;;9.86;65.30
64053;BME280;50299;49.524;8.536;2023-05-16T06:17:10;100434.09;;;9.76;63.73
64053;BME280;50299;49.524;8.536;2023-05-16T06:19:36;100428.19;;;9.69;64.45
64053;BME280;50299;49.524;8.536;2023-05-16T06:22:03;100440.41;;;9.85;64.72
64053;BME280;50299;49.524;8.536;2023-05-16T06:24:29;100436.09;;;9.27;66.11
64053;BME280;50299;49.524;8.536;2023-05-16T06:26:55;100441.66;;;9.61;66.31
64053;BME280;50299;49.524;8.536;2023-05-16T06:29:22;100447.50;;;9.69;66.18
64053;BME280;50299;49.524;8.536;2023-05-16T06:31:49;100438.44;;;10.11;65.13
64053;BME280;50299;49.524;8.536;2023-05-16T06:34:15;100438.28;;;9.73;65.15
64053;BME280;50299;49.524;8.536;2023-05-16T06:36:41;100442.16;;;9.55;64.50
64053;BME280;50299;49.524;8.536;2023-05-16T06:39:09;100447.38;;;9.82;63.25
64053;BME280;50299;49.524;8.536;2023-05-16T06:41:36;100440.25;;;9.73;63.91
64053;BME280;50299;49.524;8.536;2023-05-16T06:44:02;100443.97;;;9.85;64.14
64053;BME280;50299;49.524;8.536;2023-05-16T06:46:30;100447.88;;;9.84;63.66
64053;BME280;50299;49.524;8.536;2023-05-16T06:48:58;100446.44;;;10.13;63.69
64053;BME280;50299;49.524;8.536;2023-05-16T06:51:24;100446.91;;;10.32;63.98
64053;BME280;50299;49.524;8.536;2023-05-16T06:53:51;100441.06;;;9.82;62.91
64053;BME280;50299;49.524;8.536;2023-05-16T06:56:17;100447.69;;;8.67;66.59
64053;BME280;50299;49.524;8.536;2023-05-16T06:58:43;100450.06;;;9.30;66.52
64053;BME280;50299;49.524;8.536;2023-05-16T07:01:10;100459.09;;;9.13;65.85
64053;BME280;50299;49.524;8.536;2023-05-16T07:03:36;100450.88;;;9.40;64.61
64053;BME280;50299;49.524;8.536;2023-05-16T07:06:03;100467.97;;;9.50;64.61
64053;BME280;50299;49.524;8.536;2023-05-16T07:08:30;100469.00;;;10.15;65.07
64053;BME280;50299;49.524;8.536;2023-05-16T07:10:56;100464.94;;;9.78;64.02
64053;BME280;50299;49.524;8.536;2023-05-16T07:13:22;100475.03;;;9.25;64.54
64053;BME280;50299;49.524;8.536;2023-05-16T07:15:49;100481.19;;;9.22;64.76
64053;BME280;50299;49.524;8.536;2023-05-16T07:18:15;100470.00;;;9.27;63.59
64053;BME280;50299;49.524;8.536;2023-05-16T07:20:42;100481.66;;;9.24;64.08
64053;BME280;50299;49.524;8.536;2023-05-16T07:23:08;100477.69;;;9.56;63.38
64053;BME280;50299;49.524;8.536;2023-05-16T07:25:35;100480.56;;;8.94;63.74
64053;BME280;50299;49.524;8.536;2023-05-16T07:28:02;100483.16;;;9.30;65.37
64053;BME280;50299;49.524;8.536;2023-05-16T07:30:28;100481.66;;;9.24;65.18
64053;BME280;50299;49.524;8.536;2023-05-16T07:32:55;100490.91;;;8.35;66.55
64053;BME280;50299;49.524;8.536;2023-05-16T07:35:22;100482.66;;;8.88;65.75
64053;BME280;50299;49.524;8.536;2023-05-16T07:37:48;100493.47;;;8.76;64.78
64053;BME280;50299;49.524;8.536;2023-05-16T07:40:15;100497.97;;;8.27;66.07
64053;BME280;50299;49.524;8.536;2023-05-16T07:42:43;100493.22;;;8.95;65.65
64053;BME280;50299;49.524;8.536;2023-05-16T07:45:10;100503.47;;;8.50;65.96
64053;BME280;50299;49.524;8.536;2023-05-16T07:47:36;100504.59;;;8.71;65.40
64053;BME280;50299;49.524;8.536;2023-05-16T07:50:03;100518.03;;;8.95;66.79
64053;BME280;50299;49.524;8.536;2023-05-16T07:52:29;100515.88;;;7.66;69.60
64053;BME280;50299;49.524;8.536;2023-05-16T07:54:56;100521.81;;;8.54;68.46
64053;BME280;50299;49.524;8.536;2023-05-16T07:57:23;100528.13;;;7.96;67.61
64053;BME280;50299;49.524;8.536;2023-05-16T07:59:50;100521.94;;;7.91;68.31
64053;BME280;50299;49.524;8.536;2023-05-16T08:02:17;100520.06;;;7.36;69.10
64053;BME280;50299;49.524;8.536;2023-05-16T08:04:44;100524.78;;;8.22;69.42
64053;BME280;50299;49.524;8.536;2023-05-16T08:07:12;100533.78;;;8.50;64.59
64053;BME280;50299;49.524;8.536;2023-05-16T08:09:38;100526.69;;;7.62;68.72
64053;BME280;50299;49.524;8.536;2023-05-16T08:12:05;100538.13;;;7.09;68.10
64053;BME280;50299;49.524;8.536;2023-05-16T08:14:32;100538.06;;;6.68;71.13
64053;BME280;50299;49.524;8.536;2023-05-16T08:17:01;100539.88;;;6.40;73.43
64053;BME280;50299;49.524;8.536;2023-05-16T08:19:27;100534.25;;;6.97;71.98
64053;BME280;50299;49.524;8.536;2023-05-16T08:21:54;100532.22;;;7.02;70.37
64053;BME280;50299;49.524;8.536;2023-05-16T08:24:21;100534.97;;;7.02;69.64
64053;BME280;50299;49.524;8.536;2023-05-16T08:26:48;100538.59;;;7.58;69.29
64053;BME280;50299;49.524;8.536;2023-05-16T08:29:14;100538.66;;;7.80;66.56
64053;BME280;50299;49.524;8.536;2023-05-16T08:31:41;100537.41;;;8.00;66.51
64053;BME280;50299;49.524;8.536;2023-05-16T08:34:08;100536.72;;;7.95;67.08
64053;BME280;50299;49.524;8.536;2023-05-16T08:36:36;100539.41;;;8.90;65.94
64053;BME280;50299;49.524;8.536;2023-05-16T08:39:03;100527.63;;;9.37;65.37
64053;BME280;50299;49.524;8.536;2023-05-16T08:41:30;100536.31;;;9.13;63.18
64053;BME280;50299;49.524;8.536;2023-05-16T08:43:56;100533.84;;;9.12;62.69
64053;BME280;50299;49.524;8.536;2023-05-16T08:46:23;100539.72;;;9.19;63.05
64053;BME280;50299;49.524;8.536;2023-05-16T08:48:53;100537.03;;;9.36;62.75
64053;BME280;50299;49.524;8.536;2023-05-16T08:51:20;100537.78;;;9.59;59.70
64053;BME280;50299;49.524;8.536;2023-05-16T08:53:53;100542.75;;;9.89;60.63
64053;BME280;50299;49.524;8.536;2023-05-16T08:56:21;100546.19;;;10.29;60.16
64053;BME280;50299;49.524;8.536;2023-05-16T08:58:49;100546.03;;;10.25;58.75
64053;BME280;50299;49.524;8.536;2023-05-16T09:01:17;100546.25;;;9.72;59.32
64053;BME280;50299;49.524;8.536;2023-05-16T09:03:44;100546.75;;;9.74;59.44
64053;BME280;50299;49.524;8.536;2023-05-16T09:06:11;100548.47;;;10.18;58.56
64053;BME280;50299;49.524;8.536;2023-05-16T09:08:37;100558.31;;;9.84;58.32
64053;BME280;50299;49.524;8.536;2023-05-16T09:11:04;100549.69;;;9.37;58.08
64053;BME280;50299;49.524;8.536;2023-05-16T09:13:30;100567.25;;;8.21;63.41
64053;BME280;50299;49.524;8.536;2023-05-16T09:16:11;100561.09;;;8.82;64.30
64053;BME280;50299;49.524;8.536;2023-05-16T09:18:39;100561.69;;;8.34;66.79
64053;BME280;50299;49.524;8.536;2023-05-16T09:21:06;100551.50;;;8.57;64.17
64053;BME280;50299;49.524;8.536;2023-05-16T09:23:33;100556.22;;;8.21;66.08
64053;BME280;50299;49.524;8.536;2023-05-16T09:26:04;100561.00;;;8.65;63.86
64053;BME280;50299;49.524;8.536;2023-05-16T09:28:32;100559.97;;;8.25;65.54
64053;BME280;50299;49.524;8.536;2023-05-16T09:30:59;100565.75;;;8.37;68.08
64053;BME280;50299;49.524;8.536;2023-05-16T09:33:27;100569.66;;;7.72;66.33
64053;BME280;50299;49.524;8.536;2023-05-16T09:35:58;100573.19;;;7.18;65.90
64053;BME280;50299;49.524;8.536;2023-05-16T09:38:27;100577.97;;;7.26;67.96
64053;BME280;50299;49.524;8.536;2023-05-16T09:40:54;100583.50;;;7.81;65.16
64053;BME280;50299;49.524;8.536;2023-05-16T09:43:23;100588.81;;;7.91;62.66
64053;BME280;50299;49.524;8.536;2023-05-16T09:45:50;100588.91;;;7.72;63.00
64053;BME280;50299;49.524;8.536;2023-05-16T09:48:17;100592.34;;;8.55;65.97
64053;BME280;50299;49.524;8.536;2023-05-16T09:50:49;100599.50;;;7.93;62.39
64053;BME280;50299;49.524;8.536;2023-05-16T09:53:24;100588.59;;;7.46;65.88
64053;BME280;50299;49.524;8.536;2023-05-16T09:56:05;100596.53;;;8.17;63.85
64053;BME280;50299;49.524;8.536;2023-05-16T09:58:37;100595.94;;;7.64;65.98
64053;BME280;50299;49.524;8.536;2023-05-16T10:01:05;100600.09;;;7.48;66.43
64053;BME280;50299;49.524;8.536;2023-05-16T10:03:37;100602.97;;;6.97;66.34
64053;BME280;50299;49.524;8.536;2023-05-16T10:06:04;100608.56;;;6.92;68.33
64053;BME280;50299;49.524;8.536;2023-05-16T10:08:34;100601.72;;;7.35;68.19
64053;BME280;50299;49.524;8.536;2023-05-16T10:11:04;100600.88;;;6.56;67.73
64053;BME280;50299;49.524;8.536;2023-05-16T10:13:35;100596.09;;;7.27;66.87
64053;BME280;50299;49.524;8.536;2023-05-16T10:16:06;100603.09;;;7.66;66.22
64053;BME280;50299;49.524;8.536;2023-05-16T10:18:34;100607.59;;;7.61;63.29
64053;BME280;50299;49.524;8.536;2023-05-16T10:21:06;100610.28;;;6.87;65.99
64053;BME280;50299;49.524;8.536;2023-05-16T10:23:37;100614.47;;;6.99;66.07
64053;BME280;50299;49.524;8.536;2023-05-16T10:26:07;100606.97;;;6.53;67.07
64053;BME280;50299;49.524;8.536;2023-05-16T10:28:34;100616.81;;;6.73;66.22
64053;BME280;50299;49.524;8.536;2023-05-16T10:31:01;100619.19;;;6.79;65.87
64053;BME280;50299;49.524;8.536;2023-05-16T10:33:28;100620.81;;;6.99;65.34
64053;BME280;50299;49.524;8.536;2023-05-16T10:35:55;100624.91;;;7.15;64.74
64053;BME280;50299;49.524;8.536;2023-05-16T10:38:22;100622.34;;;6.54;66.13
64053;BME280;50299;49.524;8.536;2023-05-16T10:40:50;100622.84;;;6.75;65.88
64053;BME280;50299;49.524;8.536;2023-05-16T10:43:26;100620.03;;;7.12;65.96
64053;BME280;50299;49.524;8.536;2023-05-16T10:46:06;100630.78;;;6.57;66.13
64053;BME280;50299;49.524;8.536;2023-05-16T10:48:37;100603.78;;;6.46;65.24
64053;BME280;50299;49.524;8.536;2023-05-16T10:53:53;100620.19;;;6.32;67.75
64053;BME280;50299;49.524;8.536;2023-05-16T10:56:24;100624.94;;;6.26;66.64
64053;BME280;50299;49.524;8.536;2023-05-16T10:58:53;100617.53;;;6.97;65.78
64053;BME280;50299;49.524;8.536;2023-05-16T11:01:32;100618.63;;;6.63;65.04
64053;BME280;50299;49.524;8.536;2023-05-16T11:04:07;100631.13;;;7.21;64.17
64053;BME280;50299;49.524;8.536;2023-05-16T11:14:20;100641.44;;;7.29;62.76
64053;BME280;50299;49.524;8.536;2023-05-16T11:16:55;100641.13;;;7.77;62.60
64053;BME280;50299;49.524;8.536;2023-05-16T11:25:03;100649.81;;;8.34;60.37
64053;BME280;50299;49.524;8.536;2023-05-16T11:27:44;100653.00;;;8.28;60.39
64053;BME280;50299;49.524;8.536;2023-05-16T11:32:41;100659.75;;;8.22;61.30
64053;BME280;50299;49.524;8.536;2023-05-16T11:35:11;100662.81;;;8.20;60.30
64053;BME280;50299;49.524;8.536;2023-05-16T11:37:50;100647.66;;;7.81;62.22
64053;BME280;50299;49.524;8.536;2023-05-16T11:40:17;100655.69;;;8.05;60.89
64053;BME280;50299;49.524;8.536;2023-05-16T11:42:45;100662.09;;;7.59;61.84
64053;BME280;50299;49.524;8.536;2023-05-16T11:45:20;100648.69;;;7.85;62.19
64053;BME280;50299;49.524;8.536;2023-05-16T11:47:48;100659.44;;;7.54;63.25
64053;BME280;50299;49.524;8.536;2023-05-16T11:50:16;100671.88;;;7.93;60.05
64053;BME280;50299;49.524;8.536;2023-05-16T11:52:46;100675.94;;;8.37;61.00
64053;BME280;50299;49.524;8.536;2023-05-16T11:55:13;100672.03;;;8.66;59.42
64053;BME280;50299;49.524;8.536;2023-05-16T11:58:01;100669.03;;;7.84;59.31
64053;BME280;50299;49.524;8.536;2023-05-16T12:00:27;100662.81;;;7.93;58.82
64053;BME280;50299;49.524;8.536;2023-05-16T12:03:00;100665.28;;;8.08;57.53
64053;BME280;50299;49.524;8.536;2023-05-16T12:05:28;100673.09;;;8.28;57.87
64053;BME280;50299;49.524;8.536;2023-05-16T12:07:57;100670.38;;;8.14;57.46
64053;BME280;50299;49.524;8.536;2023-05-16T12:10:24;100669.91;;;7.52;57.43
64053;BME280;50299;49.524;8.536;2023-05-16T12:12:52;100669.75;;;7.62;58.08
64053;BME280;50299;49.524;8.536;2023-05-16T12:15:19;100670.47;;;8.09;57.74
64053;BME280;50299;49.524;8.536;2023-05-16T12:17:47;100672.25;;;8.55;55.73
64053;BME280;50299;49.524;8.536;2023-05-16T12:20:17;100682.13;;;9.37;52.82
64053;BME280;50299;49.524;8.536;2023-05-16T12:22:44;100681.72;;;8.99;52.50
64053;BME280;50299;49.524;8.536;2023-05-16T12:25:20;100684.41;;;9.98;51.40
64053;BME280;50299;49.524;8.536;2023-05-16T12:27:46;100669.66;;;10.94;52.59
64053;BME280;50299;49.524;8.536;2023-05-16T12:30:16;100681.97;;;10.71;47.93
64053;BME280;50299;49.524;8.536;2023-05-16T12:32:42;100672.25;;;10.91;47.11
64053;BME280;50299;49.524;8.536;2023-05-16T12:35:10;100686.66;;;11.31;48.65
64053;BME280;50299;49.524;8.536;2023-05-16T12:37:38;100686.25;;;12.44;48.29
64053;BME280;50299;49.524;8.536;2023-05-16T12:40:05;100680.22;;;11.82;47.52
64053;BME280;50299;49.524;8.536;2023-05-16T12:42:33;100676.16;;;11.71;44.54
64053;BME280;50299;49.524;8.536;2023-05-16T12:44:59;100683.50;;;12.14;44.11
64053;BME280;50299;49.524;8.536;2023-05-16T12:47:34;100679.72;;;11.16;45.65
64053;BME280;50299;49.524;8.536;2023-05-16T12:50:02;100678.50;;;11.52;46.00
64053;BME280;50299;49.524;8.536;2023-05-16T12:52:30;100684.44;;;11.07;44.27
64053;BME280;50299;49.524;8.536;2023-05-16T12:54:57;100682.44;;;9.90;47.56
64053;BME280;50299;49.524;8.536;2023-05-16T12:57:23;100677.31;;;10.14;49.21
64053;BME280;50299;49.524;8.536;2023-05-16T12:59:50;100675.31;;;11.15;46.19
64053;BME280;50299;49.524;8.536;2023-05-16T13:02:16;100681.78;;;10.41;45.34
64053;BME280;50299;49.524;8.536;2023-05-16T13:04:44;100674.72;;;10.09;45.50
64053;BME280;50299;49.524;8.536;2023-05-16T13:07:10;100682.72;;;9.26;47.39
64053;BME280;50299;49.524;8.536;2023-05-16T13:09:37;100685.22;;;10.73;44.88
64053;BME280;50299;49.524;8.536;2023-05-16T13:12:04;100685.38;;;10.59;45.42
64053;BME280;50299;49.524;8.536;2023-05-16T13:14:30;100680.53;;;10.91;44.91
64053;BME280;50299;49.524;8.536;2023-05-16T13:16:57;100681.53;;;9.72;45.19
64053;BME280;50299;49.524;8.536;2023-05-16T13:19:24;100675.75;;;10.56;49.62
64053;BME280;50299;49.524;8.536;2023-05-16T13:21:51;100686.06;;;11.08;43.89
64053;BME280;50299;49.524;8.536;2023-05-16T13:24:17;100672.88;;;10.88;44.92
64053;BME280;50299;49.524;8.536;2023-05-16T13:26:44;100693.69;;;10.02;44.01
64053;BME280;50299;49.524;8.536;2023-05-16T13:29:10;100694.44;;;10.33;42.98